sensor_id;sensor_type;location;lat;lon;timestamp;P1;durP1;ratioP1;P2;durP2;ratioP2
22449;SDS011;11392;57.390;-2.468;2023-02-28T00:00:35;4.93;;;2.20;;
22449;SDS011;11392;57.390;-2.468;2023-02-28T00:03:03;4.75;;;2.35;;
22449;SDS011;11392;57.390;-2.468;2023-02-28T00:05:31;4.78;;;2.60;;
22449;SDS011;11392;57.390;-2.468;2023-02-28T00:07:59;3.13;;;1.90;;
22449;SDS011;11392;57.390;-2.468;2023-02-28T00:10:28;7.28;;;2.33;;
22449;SDS011;11392;57.390;-2.468;2023-02-28T00:13:05;3.90;;;1.63;;
22449;SDS011;11392;57.390;-2.468;2023-02-28T00:15:33;3.28;;;1.70;;
22449;SDS011;11392;57.390;-2.468;2023-02-28T00:18:00;3.38;;;1.70;;
22449;SDS011;11392;57.390;-2.468;2023-02-28T00:20:27;1.50;;;1.40;;
22449;SDS011;11392;57.390;-2.468;2023-02-28T00:22:54;3.65;;;2.10;;
22449;SDS011;11392;57.390;-2.468;2023-02-28T00:25:22;3.35;;;2.38;;
22449;SDS011;11392;57.390;-2.468;2023-02-28T00:27:51;4.22;;;1.83;;
22449;SDS011;11392;57.390;-2.468;2023-02-28T00:30:20;4.57;;;2.20;;
22449;SDS011;11392;57.390;-2.468;2023-02-28T00:32:48;1.30;;;1.20;;
22449;SDS011;11392;57.390;-2.468;2023-02-28T00:35:16;3.00;;;1.90;;
22449;SDS011;11392;57.390;-2.468;2023-02-28T00:37:44;3.15;;;1.70;;
22449;SDS011;11392;57.390;-2.468;2023-02-28T00:40:11;2.33;;;1.58;;
22449;SDS011;11392;57.390;-2.468;2023-02-28T00:42:38;3.63;;;2.00;;
22449;SDS011;11392;57.390;-2.468;2023-02-28T00:45:06;4.20;;;2.10;;
22449;SDS011;11392;57.390;-2.468;2023-02-28T00:47:34;2.72;;;2.10;;
22449;SDS011;11392;57.390;-2.468;2023-02-28T00:50:02;2.50;;;1.67;;
22449;SDS011;11392;57.390;-2.468;2023-02-28T00:52:29;2.28;;;1.42;;
22449;SDS011;11392;57.390;-2.468;2023-02-28T00:54:56;1.80;;;1.30;;
22449;SDS011;11392;57.390;-2.468;2023-02-28T00:57:24;2.38;;;1.60;;
22449;SDS011;11392;57.390;-2.468;2023-02-28T00:59:50;3.30;;;2.33;;
22449;SDS011;11392;57.390;-2.468;2023-02-28T01:02:21;4.30;;;1.77;;
22449;SDS011;11392;57.390;-2.468;2023-02-28T01:04:52;4.05;;;2.00;;
22449;SDS011;11392;57.390;-2.468;2023-02-28T01:07:19;6.55;;;2.22;;
22449;SDS011;11392;57.390;-2.468;2023-02-28T01:09:46;4.63;;;2.33;;
22449;SDS011;11392;57.390;-2.468;2023-02-28T01:12:13;2.17;;;1.95;;
22449;SDS011;11392;57.390;-2.468;2023-02-28T01:14:40;2.72;;;1.95;;
22449;SDS011;11392;57.390;-2.468;2023-02-28T01:17:07;4.72;;;1.83;;
22449;SDS011;11392;57.390;-2.468;2023-02-28T01:19:34;2.75;;;1.73;;
22449;SDS011;11392;57.390;-2.468;2023-02-28T01:22:02;2.42;;;2.00;;
22449;SDS011;11392;57.390;-2.468;2023-02-28T01:24:31;4.38;;;2.30;;
22449;SDS011;11392;57.390;-2.468;2023-02-28T01:26:59;2.40;;;1.90;;
22449;SDS011;11392;57.390;-2.468;2023-02-28T01:29:26;2.38;;;1.77;;
22449;SDS011;11392;57.390;-2.468;2023-02-28T01:31:54;2.53;;;1.92;;
22449;SDS011;11392;57.390;-2.468;2023-02-28T01:34:21;2.47;;;2.28;;
22449;SDS011;11392;57.390;-2.468;2023-02-28T01:36:48;4.00;;;3.58;;
22449;SDS011;11392;57.390;-2.468;2023-02-28T01:39:16;5.35;;;3.10;;
22449;SDS011;11392;57.390;-2.468;2023-02-28T01:41:44;5.93;;;3.25;;
22449;SDS011;11392;57.390;-2.468;2023-02-28T01:47:15;3.65;;;2.88;;
22449;SDS011;11392;57.390;-2.468;2023-02-28T01:49:42;3.25;;;2.65;;
22449;SDS011;11392;57.390;-2.468;2023-02-28T01:52:09;4.35;;;3.03;;
22449;SDS011;11392;57.390;-2.468;2023-02-28T01:54:51;3.80;;;2.70;;
22449;SDS011;11392;57.390;-2.468;2023-02-28T01:57:23;3.63;;;3.15;;
22449;SDS011;11392;57.390;-2.468;2023-02-28T01:59:56;3.20;;;2.90;;
22449;SDS011;11392;57.390;-2.468;2023-02-28T02:02:26;3.40;;;3.10;;
22449;SDS011;11392;57.390;-2.468;2023-02-28T02:04:58;4.35;;;3.35;;
22449;SDS011;11392;57.390;-2.468;2023-02-28T02:07:31;6.40;;;3.25;;
22449;SDS011;11392;57.390;-2.468;2023-02-28T02:10:02;4.15;;;2.83;;
22449;SDS011;11392;57.390;-2.468;2023-02-28T02:15:27;2.97;;;2.40;;
22449;SDS011;11392;57.390;-2.468;2023-02-28T02:18:04;4.70;;;3.20;;
22449;SDS011;11392;57.390;-2.468;2023-02-28T02:32:06;4.05;;;2.67;;
22449;SDS011;11392;57.390;-2.468;2023-02-28T02:35:20;5.28;;;3.70;;
22449;SDS011;11392;57.390;-2.468;2023-02-28T02:37:49;3.42;;;2.85;;
22449;SDS011;11392;57.390;-2.468;2023-02-28T02:40:23;3.70;;;3.08;;
22449;SDS011;11392;57.390;-2.468;2023-02-28T02:43:07;3.45;;;3.10;;
22449;SDS011;11392;57.390;-2.468;2023-02-28T02:48:29;3.28;;;2.55;;
22449;SDS011;11392;57.390;-2.468;2023-02-28T02:50:58;2.92;;;2.70;;
22449;SDS011;11392;57.390;-2.468;2023-02-28T02:53:32;2.97;;;2.72;;
22449;SDS011;11392;57.390;-2.468;2023-02-28T02:56:03;3.10;;;2.42;;
22449;SDS011;11392;57.390;-2.468;2023-02-28T02:58:32;2.78;;;2.55;;
22449;SDS011;11392;57.390;-2.468;2023-02-28T03:01:08;3.28;;;2.67;;
22449;SDS011;11392;57.390;-2.468;2023-02-28T03:03:39;3.05;;;2.47;;
22449;SDS011;11392;57.390;-2.468;2023-02-28T03:06:06;3.13;;;2.83;;
22449;SDS011;11392;57.390;-2.468;2023-02-28T03:08:41;3.67;;;2.65;;
22449;SDS011;11392;57.390;-2.468;2023-02-28T03:11:11;3.35;;;3.05;;
22449;SDS011;11392;57.390;-2.468;2023-02-28T03:21:56;2.58;;;2.38;;
22449;SDS011;11392;57.390;-2.468;2023-02-28T03:24:32;3.80;;;3.40;;
22449;SDS011;11392;57.390;-2.468;2023-02-28T03:27:09;2.80;;;2.58;;
22449;SDS011;11392;57.390;-2.468;2023-02-28T03:29:46;2.80;;;2.60;;
22449;SDS011;11392;57.390;-2.468;2023-02-28T03:35:11;3.25;;;2.50;;
22449;SDS011;11392;57.390;-2.468;2023-02-28T03:37:50;3.15;;;2.60;;
22449;SDS011;11392;57.390;-2.468;2023-02-28T03:40:21;2.80;;;2.60;;
22449;SDS011;11392;57.390;-2.468;2023-02-28T03:42:52;2.80;;;2.60;;
22449;SDS011;11392;57.390;-2.468;2023-02-28T03:45:25;2.58;;;2.38;;
22449;SDS011;11392;57.390;-2.468;2023-02-28T03:50:40;3.13;;;2.55;;
22449;SDS011;11392;57.390;-2.468;2023-02-28T03:53:11;2.72;;;2.53;;
22449;SDS011;11392;57.390;-2.468;2023-02-28T03:55:58;2.50;;;2.20;;
22449;SDS011;11392;57.390;-2.468;2023-02-28T03:58:32;2.75;;;2.55;;
22449;SDS011;11392;57.390;-2.468;2023-02-28T04:04:08;4.72;;;2.35;;
22449;SDS011;11392;57.390;-2.468;2023-02-28T04:06:36;3.67;;;2.10;;
22449;SDS011;11392;57.390;-2.468;2023-02-28T04:09:04;2.60;;;2.40;;
22449;SDS011;11392;57.390;-2.468;2023-02-28T04:11:34;2.88;;;2.50;;
22449;SDS011;11392;57.390;-2.468;2023-02-28T04:14:04;2.78;;;2.58;;
22449;SDS011;11392;57.390;-2.468;2023-02-28T04:16:33;4.18;;;3.60;;
22449;SDS011;11392;57.390;-2.468;2023-02-28T04:19:02;4.15;;;3.50;;
22449;SDS011;11392;57.390;-2.468;2023-02-28T04:21:32;2.88;;;2.65;;
22449;SDS011;11392;57.390;-2.468;2023-02-28T04:24:00;4.07;;;2.95;;
22449;SDS011;11392;57.390;-2.468;2023-02-28T04:26:28;3.47;;;2.80;;
22449;SDS011;11392;57.390;-2.468;2023-02-28T04:28:57;3.28;;;2.85;;
22449;SDS011;11392;57.390;-2.468;2023-02-28T04:31:24;3.15;;;2.85;;
22449;SDS011;11392;57.390;-2.468;2023-02-28T04:33:52;2.90;;;2.65;;
22449;SDS011;11392;57.390;-2.468;2023-02-28T04:36:19;4.63;;;2.63;;
22449;SDS011;11392;57.390;-2.468;2023-02-28T04:38:46;3.05;;;2.75;;
22449;SDS011;11392;57.390;-2.468;2023-02-28T04:41:13;3.10;;;2.88;;
22449;SDS011;11392;57.390;-2.468;2023-02-28T04:43:40;2.58;;;2.38;;
22449;SDS011;11392;57.390;-2.468;2023-02-28T04:46:07;2.92;;;2.40;;
22449;SDS011;11392;57.390;-2.468;2023-02-28T04:48:36;2.78;;;2.15;;
22449;SDS011;11392;57.390;-2.468;2023-02-28T04:51:08;2.83;;;2.28;;
22449;SDS011;11392;57.390;-2.468;2023-02-28T04:53:36;2.75;;;2.38;;
22449;SDS011;11392;57.390;-2.468;2023-02-28T04:56:05;3.08;;;2.35;;
22449;SDS011;11392;57.390;-2.468;2023-02-28T04:58:33;2.50;;;2.28;;
22449;SDS011;11392;57.390;-2.468;2023-02-28T05:01:01;2.03;;;1.92;;
22449;SDS011;11392;57.390;-2.468;2023-02-28T05:03:39;2.45;;;2.25;;
22449;SDS011;11392;57.390;-2.468;2023-02-28T05:06:09;4.32;;;2.70;;
22449;SDS011;11392;57.390;-2.468;2023-02-28T05:08:37;3.90;;;2.70;;
22449;SDS011;11392;57.390;-2.468;2023-02-28T05:11:06;2.30;;;2.10;;
22449;SDS011;11392;57.390;-2.468;2023-02-28T05:13:42;3.08;;;2.20;;
22449;SDS011;11392;57.390;-2.468;2023-02-28T05:16:09;2.58;;;2.38;;
22449;SDS011;11392;57.390;-2.468;2023-02-28T05:18:37;3.22;;;2.30;;
22449;SDS011;11392;57.390;-2.468;2023-02-28T05:21:04;2.45;;;2.25;;
22449;SDS011;11392;57.390;-2.468;2023-02-28T05:23:32;4.53;;;2.67;;
22449;SDS011;11392;57.390;-2.468;2023-02-28T05:25:59;2.67;;;2.45;;
22449;SDS011;11392;57.390;-2.468;2023-02-28T05:28:26;2.97;;;2.20;;
22449;SDS011;11392;57.390;-2.468;2023-02-28T05:30:53;3.63;;;2.65;;
22449;SDS011;11392;57.390;-2.468;2023-02-28T05:33:20;3.03;;;2.17;;
22449;SDS011;11392;57.390;-2.468;2023-02-28T05:35:47;2.60;;;2.40;;
22449;SDS011;11392;57.390;-2.468;2023-02-28T05:38:14;2.60;;;2.40;;
22449;SDS011;11392;57.390;-2.468;2023-02-28T05:40:41;2.78;;;2.58;;
22449;SDS011;11392;57.390;-2.468;2023-02-28T05:43:09;2.55;;;2.35;;
22449;SDS011;11392;57.390;-2.468;2023-02-28T05:45:37;3.08;;;2.65;;
22449;SDS011;11392;57.390;-2.468;2023-02-28T05:48:05;3.63;;;2.47;;
22449;SDS011;11392;57.390;-2.468;2023-02-28T05:50:32;2.63;;;2.13;;
22449;SDS011;11392;57.390;-2.468;2023-02-28T05:52:59;2.25;;;2.08;;
22449;SDS011;11392;57.390;-2.468;2023-02-28T05:55:26;4.32;;;2.40;;
22449;SDS011;11392;57.390;-2.468;2023-02-28T05:57:53;3.22;;;2.92;;
22449;SDS011;11392;57.390;-2.468;2023-02-28T06:00:20;2.95;;;2.42;;
22449;SDS011;11392;57.390;-2.468;2023-02-28T06:02:47;2.85;;;2.40;;
22449;SDS011;11392;57.390;-2.468;2023-02-28T06:05:16;2.63;;;2.42;;
22449;SDS011;11392;57.390;-2.468;2023-02-28T06:07:44;3.00;;;2.70;;
22449;SDS011;11392;57.390;-2.468;2023-02-28T06:10:11;3.30;;;2.53;;
22449;SDS011;11392;57.390;-2.468;2023-02-28T06:12:38;2.72;;;2.10;;
22449;SDS011;11392;57.390;-2.468;2023-02-28T06:15:11;2.47;;;2.20;;
22449;SDS011;11392;57.390;-2.468;2023-02-28T06:17:39;2.90;;;2.30;;
22449;SDS011;11392;57.390;-2.468;2023-02-28T06:20:11;1.85;;;1.75;;
22449;SDS011;11392;57.390;-2.468;2023-02-28T06:22:39;2.78;;;2.47;;
22449;SDS011;11392;57.390;-2.468;2023-02-28T06:25:06;2.30;;;2.10;;
22449;SDS011;11392;57.390;-2.468;2023-02-28T06:27:34;3.33;;;1.83;;
22449;SDS011;11392;57.390;-2.468;2023-02-28T06:30:01;2.75;;;2.53;;
22449;SDS011;11392;57.390;-2.468;2023-02-28T06:32:28;2.33;;;2.13;;
22449;SDS011;11392;57.390;-2.468;2023-02-28T06:34:55;2.90;;;2.28;;
22449;SDS011;11392;57.390;-2.468;2023-02-28T06:37:23;3.70;;;2.60;;
22449;SDS011;11392;57.390;-2.468;2023-02-28T06:39:56;3.40;;;2.40;;
22449;SDS011;11392;57.390;-2.468;2023-02-28T06:42:23;2.17;;;1.95;;
22449;SDS011;11392;57.390;-2.468;2023-02-28T06:44:55;3.97;;;2.67;;
22449;SDS011;11392;57.390;-2.468;2023-02-28T06:47:22;2.97;;;2.38;;
22449;SDS011;11392;57.390;-2.468;2023-02-28T06:49:49;2.78;;;2.45;;
22449;SDS011;11392;57.390;-2.468;2023-02-28T06:52:17;2.58;;;2.38;;
22449;SDS011;11392;57.390;-2.468;2023-02-28T06:54:43;3.25;;;2.50;;
22449;SDS011;11392;57.390;-2.468;2023-02-28T06:57:11;2.33;;;2.10;;
22449;SDS011;11392;57.390;-2.468;2023-02-28T06:59:38;5.32;;;2.85;;
22449;SDS011;11392;57.390;-2.468;2023-02-28T07:02:05;2.60;;;2.40;;
22449;SDS011;11392;57.390;-2.468;2023-02-28T07:04:33;5.32;;;2.70;;
22449;SDS011;11392;57.390;-2.468;2023-02-28T07:07:00;2.55;;;2.28;;
22449;SDS011;11392;57.390;-2.468;2023-02-28T07:09:27;2.53;;;1.92;;
22449;SDS011;11392;57.390;-2.468;2023-02-28T07:12:00;2.65;;;2.45;;
22449;SDS011;11392;57.390;-2.468;2023-02-28T07:14:27;1.92;;;1.80;;
22449;SDS011;11392;57.390;-2.468;2023-02-28T07:16:54;2.10;;;1.90;;
22449;SDS011;11392;57.390;-2.468;2023-02-28T07:19:21;2.80;;;2.50;;
22449;SDS011;11392;57.390;-2.468;2023-02-28T07:21:48;3.15;;;2.40;;
22449;SDS011;11392;57.390;-2.468;2023-02-28T07:24:15;3.17;;;2.88;;
22449;SDS011;11392;57.390;-2.468;2023-02-28T07:26:44;4.95;;;2.90;;
22449;SDS011;11392;57.390;-2.468;2023-02-28T07:29:11;2.63;;;2.40;;
22449;SDS011;11392;57.390;-2.468;2023-02-28T07:31:38;2.60;;;2.40;;
22449;SDS011;11392;57.390;-2.468;2023-02-28T07:34:05;3.70;;;2.70;;
22449;SDS011;11392;57.390;-2.468;2023-02-28T07:36:32;3.10;;;2.80;;
22449;SDS011;11392;57.390;-2.468;2023-02-28T07:38:59;3.15;;;2.72;;
22449;SDS011;11392;57.390;-2.468;2023-02-28T07:41:26;3.95;;;2.88;;
22449;SDS011;11392;57.390;-2.468;2023-02-28T07:43:54;3.50;;;3.05;;
22449;SDS011;11392;57.390;-2.468;2023-02-28T07:46:23;4.00;;;3.03;;
22449;SDS011;11392;57.390;-2.468;2023-02-28T07:48:50;4.45;;;3.08;;
22449;SDS011;11392;57.390;-2.468;2023-02-28T07:51:19;3.78;;;2.65;;
22449;SDS011;11392;57.390;-2.468;2023-02-28T07:53:47;4.13;;;3.72;;
22449;SDS011;11392;57.390;-2.468;2023-02-28T07:56:14;4.32;;;3.58;;
22449;SDS011;11392;57.390;-2.468;2023-02-28T07:58:40;3.47;;;2.88;;
22449;SDS011;11392;57.390;-2.468;2023-02-28T08:01:08;3.42;;;2.70;;
22449;SDS011;11392;57.390;-2.468;2023-02-28T08:03:37;4.05;;;3.00;;
22449;SDS011;11392;57.390;-2.468;2023-02-28T08:06:06;3.97;;;2.90;;
22449;SDS011;11392;57.390;-2.468;2023-02-28T08:08:37;5.07;;;3.00;;
22449;SDS011;11392;57.390;-2.468;2023-02-28T08:11:04;3.03;;;2.80;;
22449;SDS011;11392;57.390;-2.468;2023-02-28T08:13:31;6.63;;;3.10;;
22449;SDS011;11392;57.390;-2.468;2023-02-28T08:16:01;5.93;;;3.17;;
22449;SDS011;11392;57.390;-2.468;2023-02-28T08:18:28;4.72;;;3.20;;
22449;SDS011;11392;57.390;-2.468;2023-02-28T08:20:55;5.07;;;2.80;;
22449;SDS011;11392;57.390;-2.468;2023-02-28T08:23:23;4.53;;;3.10;;
22449;SDS011;11392;57.390;-2.468;2023-02-28T08:25:54;4.20;;;3.03;;
22449;SDS011;11392;57.390;-2.468;2023-02-28T08:28:24;4.35;;;2.80;;
22449;SDS011;11392;57.390;-2.468;2023-02-28T08:30:52;3.55;;;2.70;;
22449;SDS011;11392;57.390;-2.468;2023-02-28T08:33:20;3.55;;;2.90;;
22449;SDS011;11392;57.390;-2.468;2023-02-28T08:35:51;3.75;;;3.17;;
22449;SDS011;11392;57.390;-2.468;2023-02-28T08:38:20;3.58;;;3.00;;
22449;SDS011;11392;57.390;-2.468;2023-02-28T08:40:47;3.88;;;3.15;;
22449;SDS011;11392;57.390;-2.468;2023-02-28T08:43:14;4.20;;;3.28;;
22449;SDS011;11392;57.390;-2.468;2023-02-28T08:45:41;4.45;;;3.70;;
22449;SDS011;11392;57.390;-2.468;2023-02-28T08:48:08;4.07;;;3.67;;
22449;SDS011;11392;57.390;-2.468;2023-02-28T08:50:35;5.50;;;4.00;;
22449;SDS011;11392;57.390;-2.468;2023-02-28T08:53:02;4.50;;;3.75;;
22449;SDS011;11392;57.390;-2.468;2023-02-28T08:55:30;5.75;;;3.90;;
22449;SDS011;11392;57.390;-2.468;2023-02-28T08:57:57;5.00;;;3.70;;
22449;SDS011;11392;57.390;-2.468;2023-02-28T09:00:24;4.32;;;3.92;;
22449;SDS011;11392;57.390;-2.468;2023-02-28T09:02:51;5.60;;;4.63;;
22449;SDS011;11392;57.390;-2.468;2023-02-28T09:05:18;5.65;;;4.82;;
22449;SDS011;11392;57.390;-2.468;2023-02-28T09:07:46;5.32;;;4.32;;
22449;SDS011;11392;57.390;-2.468;2023-02-28T09:10:13;5.13;;;4.10;;
22449;SDS011;11392;57.390;-2.468;2023-02-28T09:12:39;4.40;;;4.00;;
22449;SDS011;11392;57.390;-2.468;2023-02-28T09:15:07;6.47;;;3.83;;
22449;SDS011;11392;57.390;-2.468;2023-02-28T09:17:34;12.23;;;4.60;;
22449;SDS011;11392;57.390;-2.468;2023-02-28T09:20:01;6.50;;;4.47;;
22449;SDS011;11392;57.390;-2.468;2023-02-28T09:22:28;4.47;;;3.40;;
22449;SDS011;11392;57.390;-2.468;2023-02-28T09:24:55;4.45;;;3.55;;
22449;SDS011;11392;57.390;-2.468;2023-02-28T09:27:22;3.42;;;3.13;;
22449;SDS011;11392;57.390;-2.468;2023-02-28T09:29:49;3.20;;;2.95;;
22449;SDS011;11392;57.390;-2.468;2023-02-28T09:32:16;3.10;;;2.83;;
22449;SDS011;11392;57.390;-2.468;2023-02-28T09:34:44;2.78;;;2.20;;
22449;SDS011;11392;57.390;-2.468;2023-02-28T09:37:11;2.30;;;2.10;;
22449;SDS011;11392;57.390;-2.468;2023-02-28T09:39:38;3.17;;;1.90;;
22449;SDS011;11392;57.390;-2.468;2023-02-28T09:42:05;2.03;;;1.67;;
22449;SDS011;11392;57.390;-2.468;2023-02-28T09:44:43;2.03;;;1.83;;
22449;SDS011;11392;57.390;-2.468;2023-02-28T09:50:03;1.45;;;1.33;;
22449;SDS011;11392;57.390;-2.468;2023-02-28T09:52:49;1.67;;;1.48;;
22449;SDS011;11392;57.390;-2.468;2023-02-28T09:55:22;1.48;;;1.38;;
22449;SDS011;11392;57.390;-2.468;2023-02-28T09:58:09;2.08;;;1.38;;
22449;SDS011;11392;57.390;-2.468;2023-02-28T10:01:23;2.30;;;1.67;;
22449;SDS011;11392;57.390;-2.468;2023-02-28T10:06:33;2.50;;;1.67;;
22449;SDS011;11392;57.390;-2.468;2023-02-28T10:09:10;1.38;;;1.27;;
22449;SDS011;11392;57.390;-2.468;2023-02-28T10:11:42;3.47;;;2.08;;
22449;SDS011;11392;57.390;-2.468;2023-02-28T10:14:14;2.30;;;2.00;;
22449;SDS011;11392;57.390;-2.468;2023-02-28T10:16:45;1.92;;;1.70;;
22449;SDS011;11392;57.390;-2.468;2023-02-28T10:24:48;3.22;;;1.45;;
22449;SDS011;11392;57.390;-2.468;2023-02-28T10:27:21;1.50;;;1.30;;
22449;SDS011;11392;57.390;-2.468;2023-02-28T10:29:56;1.67;;;1.30;;
22449;SDS011;11392;57.390;-2.468;2023-02-28T10:32:29;1.83;;;1.35;;
22449;SDS011;11392;57.390;-2.468;2023-02-28T10:37:37;2.60;;;1.90;;
22449;SDS011;11392;57.390;-2.468;2023-02-28T10:40:06;3.00;;;1.98;;
22449;SDS011;11392;57.390;-2.468;2023-02-28T10:45:32;1.33;;;1.13;;
22449;SDS011;11392;57.390;-2.468;2023-02-28T10:48:04;2.50;;;1.30;;
22449;SDS011;11392;57.390;-2.468;2023-02-28T10:56:04;0.50;;;0.50;;
22449;SDS011;11392;57.390;-2.468;2023-02-28T11:03:49;0.40;;;0.40;;
22449;SDS011;11392;57.390;-2.468;2023-02-28T11:09:00;0.63;;;0.50;;
22449;SDS011;11392;57.390;-2.468;2023-02-28T11:11:30;0.30;;;0.30;;
22449;SDS011;11392;57.390;-2.468;2023-02-28T11:14:18;1.10;;;0.35;;
22449;SDS011;11392;57.390;-2.468;2023-02-28T11:16:51;0.40;;;0.30;;
22449;SDS011;11392;57.390;-2.468;2023-02-28T11:19:38;0.40;;;0.30;;
22449;SDS011;11392;57.390;-2.468;2023-02-28T11:22:15;0.40;;;0.40;;
22449;SDS011;11392;57.390;-2.468;2023-02-28T11:24:51;1.83;;;0.52;;
22449;SDS011;11392;57.390;-2.468;2023-02-28T11:29:57;0.50;;;0.47;;
22449;SDS011;11392;57.390;-2.468;2023-02-28T11:32:27;1.65;;;0.73;;
22449;SDS011;11392;57.390;-2.468;2023-02-28T11:35:39;0.60;;;0.60;;
22449;SDS011;11392;57.390;-2.468;2023-02-28T11:38:07;0.85;;;0.40;;
22449;SDS011;11392;57.390;-2.468;2023-02-28T11:40:42;0.50;;;0.43;;
22449;SDS011;11392;57.390;-2.468;2023-02-28T11:43:18;0.50;;;0.40;;
22449;SDS011;11392;57.390;-2.468;2023-02-28T11:51:41;0.63;;;0.30;;
22449;SDS011;11392;57.390;-2.468;2023-02-28T11:57:25;0.45;;;0.30;;
22449;SDS011;11392;57.390;-2.468;2023-02-28T12:10:27;1.40;;;0.50;;
22449;SDS011;11392;57.390;-2.468;2023-02-28T12:15:40;2.03;;;0.68;;
22449;SDS011;11392;57.390;-2.468;2023-02-28T12:18:21;1.17;;;0.40;;
22449;SDS011;11392;57.390;-2.468;2023-02-28T12:20:54;1.33;;;0.68;;
22449;SDS011;11392;57.390;-2.468;2023-02-28T12:29:17;1.25;;;0.82;;
22449;SDS011;11392;57.390;-2.468;2023-02-28T12:31:54;2.72;;;1.45;;
22449;SDS011;11392;57.390;-2.468;2023-02-28T12:34:27;0.70;;;0.70;;
22449;SDS011;11392;57.390;-2.468;2023-02-28T12:37:02;2.17;;;1.00;;
22449;SDS011;11392;57.390;-2.468;2023-02-28T12:39:38;3.50;;;0.82;;
22449;SDS011;11392;57.390;-2.468;2023-02-28T12:42:24;3.70;;;1.20;;
22449;SDS011;11392;57.390;-2.468;2023-02-28T12:45:01;2.03;;;1.20;;
22449;SDS011;11392;57.390;-2.468;2023-02-28T12:47:35;2.92;;;1.20;;
22449;SDS011;11392;57.390;-2.468;2023-02-28T12:50:06;3.20;;;1.30;;
22449;SDS011;11392;57.390;-2.468;2023-02-28T12:52:50;1.55;;;1.23;;
22449;SDS011;11392;57.390;-2.468;2023-02-28T12:55:27;1.95;;;1.40;;
22449;SDS011;11392;57.390;-2.468;2023-02-28T13:01:10;2.10;;;1.20;;
22449;SDS011;11392;57.390;-2.468;2023-02-28T13:03:46;1.77;;;1.40;;
22449;SDS011;11392;57.390;-2.468;2023-02-28T13:09:16;4.03;;;1.40;;
22449;SDS011;11392;57.390;-2.468;2023-02-28T13:11:48;2.95;;;1.08;;
22449;SDS011;11392;57.390;-2.468;2023-02-28T13:14:29;3.28;;;1.23;;
22449;SDS011;11392;57.390;-2.468;2023-02-28T13:22:20;2.67;;;1.13;;
22449;SDS011;11392;57.390;-2.468;2023-02-28T13:24:51;4.43;;;1.48;;
22449;SDS011;11392;57.390;-2.468;2023-02-28T13:29:57;1.88;;;1.15;;
22449;SDS011;11392;57.390;-2.468;2023-02-28T13:55:33;2.70;;;0.98;;
22449;SDS011;11392;57.390;-2.468;2023-02-28T13:58:38;2.17;;;0.95;;
22449;SDS011;11392;57.390;-2.468;2023-02-28T14:06:34;1.73;;;1.10;;
22449;SDS011;11392;57.390;-2.468;2023-02-28T14:09:16;2.28;;;0.90;;
22449;SDS011;11392;57.390;-2.468;2023-02-28T14:11:55;1.58;;;0.90;;
22449;SDS011;11392;57.390;-2.468;2023-02-28T14:17:23;4.80;;;1.85;;
22449;SDS011;11392;57.390;-2.468;2023-02-28T14:19:50;2.20;;;1.00;;
22449;SDS011;11392;57.390;-2.468;2023-02-28T14:22:29;5.13;;;0.98;;
22449;SDS011;11392;57.390;-2.468;2023-02-28T14:25:08;4.35;;;0.90;;
22449;SDS011;11392;57.390;-2.468;2023-02-28T14:38:39;1.55;;;1.20;;
22449;SDS011;11392;57.390;-2.468;2023-02-28T14:41:14;4.00;;;1.55;;
22449;SDS011;11392;57.390;-2.468;2023-02-28T14:44:25;6.43;;;1.83;;
22449;SDS011;11392;57.390;-2.468;2023-02-28T14:46:53;2.97;;;0.90;;
22449;SDS011;11392;57.390;-2.468;2023-02-28T14:49:29;3.25;;;1.02;;
22449;SDS011;11392;57.390;-2.468;2023-02-28T14:52:21;1.50;;;0.85;;
22449;SDS011;11392;57.390;-2.468;2023-02-28T14:55:00;3.38;;;1.13;;
22449;SDS011;11392;57.390;-2.468;2023-02-28T14:57:31;2.08;;;1.23;;
22449;SDS011;11392;57.390;-2.468;2023-02-28T15:02:47;2.08;;;1.35;;
22449;SDS011;11392;57.390;-2.468;2023-02-28T15:07:44;5.18;;;1.10;;
22449;SDS011;11392;57.390;-2.468;2023-02-28T15:10:17;2.55;;;0.93;;
22449;SDS011;11392;57.390;-2.468;2023-02-28T15:12:49;5.70;;;2.42;;
22449;SDS011;11392;57.390;-2.468;2023-02-28T15:15:19;5.03;;;1.10;;
22449;SDS011;11392;57.390;-2.468;2023-02-28T15:18:01;2.25;;;1.17;;
22449;SDS011;11392;57.390;-2.468;2023-02-28T15:20:31;3.42;;;1.17;;
22449;SDS011;11392;57.390;-2.468;2023-02-28T15:22:59;3.53;;;1.50;;
22449;SDS011;11392;57.390;-2.468;2023-02-28T15:25:27;1.95;;;1.33;;
22449;SDS011;11392;57.390;-2.468;2023-02-28T15:27:54;1.88;;;1.10;;
22449;SDS011;11392;57.390;-2.468;2023-02-28T15:30:25;5.72;;;1.65;;
22449;SDS011;11392;57.390;-2.468;2023-02-28T15:35:40;3.67;;;0.90;;
22449;SDS011;11392;57.390;-2.468;2023-02-28T15:40:45;2.70;;;1.10;;
22449;SDS011;11392;57.390;-2.468;2023-02-28T15:43:27;2.95;;;1.13;;
22449;SDS011;11392;57.390;-2.468;2023-02-28T15:46:35;2.00;;;1.00;;
22449;SDS011;11392;57.390;-2.468;2023-02-28T15:48:55;3.17;;;1.02;;
22449;SDS011;11392;57.390;-2.468;2023-02-28T15:51:30;2.53;;;1.10;;
22449;SDS011;11392;57.390;-2.468;2023-02-28T15:54:06;1.75;;;1.00;;
22449;SDS011;11392;57.390;-2.468;2023-02-28T15:56:35;3.50;;;1.48;;
22449;SDS011;11392;57.390;-2.468;2023-02-28T15:59:29;4.80;;;1.77;;
22449;SDS011;11392;57.390;-2.468;2023-02-28T16:05:02;1.92;;;1.00;;
22449;SDS011;11392;57.390;-2.468;2023-02-28T16:07:58;3.97;;;1.50;;
22449;SDS011;11392;57.390;-2.468;2023-02-28T16:10:27;3.60;;;1.17;;
22449;SDS011;11392;57.390;-2.468;2023-02-28T16:12:55;3.20;;;1.30;;
22449;SDS011;11392;57.390;-2.468;2023-02-28T16:15:27;1.83;;;1.10;;
22449;SDS011;11392;57.390;-2.468;2023-02-28T16:18:08;4.68;;;1.35;;
22449;SDS011;11392;57.390;-2.468;2023-02-28T16:20:42;4.63;;;1.75;;
22449;SDS011;11392;57.390;-2.468;2023-02-28T16:23:10;7.20;;;1.15;;
22449;SDS011;11392;57.390;-2.468;2023-02-28T16:25:40;3.25;;;1.40;;
22449;SDS011;11392;57.390;-2.468;2023-02-28T16:28:19;3.85;;;1.20;;
22449;SDS011;11392;57.390;-2.468;2023-02-28T16:30:53;5.35;;;2.38;;
22449;SDS011;11392;57.390;-2.468;2023-02-28T16:33:22;1.98;;;1.05;;
22449;SDS011;11392;57.390;-2.468;2023-02-28T16:35:49;4.55;;;1.05;;
22449;SDS011;11392;57.390;-2.468;2023-02-28T16:38:16;1.92;;;1.08;;
22449;SDS011;11392;57.390;-2.468;2023-02-28T16:40:43;2.55;;;1.55;;
22449;SDS011;11392;57.390;-2.468;2023-02-28T16:43:14;2.50;;;1.10;;
22449;SDS011;11392;57.390;-2.468;2023-02-28T16:45:47;2.42;;;1.27;;
22449;SDS011;11392;57.390;-2.468;2023-02-28T16:48:15;3.65;;;1.42;;
22449;SDS011;11392;57.390;-2.468;2023-02-28T16:50:42;2.75;;;1.33;;
22449;SDS011;11392;57.390;-2.468;2023-02-28T16:53:10;2.50;;;1.15;;
22449;SDS011;11392;57.390;-2.468;2023-02-28T16:55:37;1.38;;;0.90;;
22449;SDS011;11392;57.390;-2.468;2023-02-28T16:58:04;0.75;;;0.50;;
22449;SDS011;11392;57.390;-2.468;2023-02-28T17:00:32;0.88;;;0.40;;
22449;SDS011;11392;57.390;-2.468;2023-02-28T17:02:59;1.58;;;0.70;;
22449;SDS011;11392;57.390;-2.468;2023-02-28T17:05:33;1.08;;;0.70;;
22449;SDS011;11392;57.390;-2.468;2023-02-28T17:08:04;1.67;;;0.50;;
22449;SDS011;11392;57.390;-2.468;2023-02-28T17:10:31;2.25;;;0.68;;
22449;SDS011;11392;57.390;-2.468;2023-02-28T17:12:58;2.00;;;0.68;;
22449;SDS011;11392;57.390;-2.468;2023-02-28T17:15:40;0.70;;;0.60;;
22449;SDS011;11392;57.390;-2.468;2023-02-28T17:18:08;2.22;;;0.60;;
22449;SDS011;11392;57.390;-2.468;2023-02-28T17:20:53;2.38;;;0.85;;
22449;SDS011;11392;57.390;-2.468;2023-02-28T17:23:20;1.00;;;0.70;;
22449;SDS011;11392;57.390;-2.468;2023-02-28T17:25:47;1.00;;;0.60;;
22449;SDS011;11392;57.390;-2.468;2023-02-28T17:28:22;0.60;;;0.47;;
22449;SDS011;11392;57.390;-2.468;2023-02-28T17:30:50;3.50;;;0.80;;
22449;SDS011;11392;57.390;-2.468;2023-02-28T17:33:18;1.58;;;0.60;;
22449;SDS011;11392;57.390;-2.468;2023-02-28T17:35:45;2.17;;;0.77;;
22449;SDS011;11392;57.390;-2.468;2023-02-28T17:38:15;3.65;;;0.95;;
22449;SDS011;11392;57.390;-2.468;2023-02-28T17:40:44;4.38;;;0.85;;
22449;SDS011;11392;57.390;-2.468;2023-02-28T17:43:11;2.97;;;1.05;;